sensor_id;sensor_type;location;lat;lon;timestamp;P1;durP1;ratioP1;P2;durP2;ratioP2
64619;SDS011;51029;51.058;13.826;2024-03-22T00:02:15;14.93;;;10.67;;
64619;SDS011;51029;51.058;13.826;2024-03-22T00:04:40;14.77;;;10.23;;
64619;SDS011;51029;51.058;13.826;2024-03-22T00:07:06;13.07;;;9.60;;
64619;SDS011;51029;51.058;13.826;2024-03-22T00:09:33;12.90;;;10.20;;
64619;SDS011;51029;51.058;13.826;2024-03-22T00:11:58;14.10;;;9.83;;
64619;SDS011;51029;51.058;13.826;2024-03-22T00:14:25;14.93;;;10.43;;
64619;SDS011;51029;51.058;13.826;2024-03-22T00:16:50;14.77;;;10.53;;
64619;SDS011;51029;51.058;13.826;2024-03-22T00:19:16;15.90;;;10.60;;
64619;SDS011;51029;51.058;13.826;2024-03-22T00:21:42;13.77;;;9.73;;
64619;SDS011;51029;51.058;13.826;2024-03-22T00:24:08;12.00;;;10.27;;
64619;SDS011;51029;51.058;13.826;2024-03-22T00:26:34;14.90;;;10.67;;
64619;SDS011;51029;51.058;13.826;2024-03-22T00:29:00;13.17;;;10.60;;
64619;SDS011;51029;51.058;13.826;2024-03-22T00:31:26;15.57;;;10.40;;
64619;SDS011;51029;51.058;13.826;2024-03-22T00:33:52;15.80;;;10.90;;
64619;SDS011;51029;51.058;13.826;2024-03-22T00:36:18;13.87;;;10.43;;
64619;SDS011;51029;51.058;13.826;2024-03-22T00:38:44;14.87;;;10.63;;
64619;SDS011;51029;51.058;13.826;2024-03-22T00:41:10;15.80;;;11.00;;
64619;SDS011;51029;51.058;13.826;2024-03-22T00:43:36;14.90;;;10.70;;
64619;SDS011;51029;51.058;13.826;2024-03-22T00:46:02;16.17;;;10.57;;
64619;SDS011;51029;51.058;13.826;2024-03-22T00:48:28;14.53;;;10.60;;
64619;SDS011;51029;51.058;13.826;2024-03-22T00:50:54;15.73;;;10.73;;
64619;SDS011;51029;51.058;13.826;2024-03-22T00:53:20;15.40;;;10.73;;
64619;SDS011;51029;51.058;13.826;2024-03-22T00:55:46;14.30;;;10.67;;
64619;SDS011;51029;51.058;13.826;2024-03-22T00:58:16;14.80;;;11.03;;
64619;SDS011;51029;51.058;13.826;2024-03-22T01:00:43;16.30;;;11.23;;
64619;SDS011;51029;51.058;13.826;2024-03-22T01:03:09;16.67;;;11.10;;
64619;SDS011;51029;51.058;13.826;2024-03-22T01:05:35;15.97;;;11.17;;
64619;SDS011;51029;51.058;13.826;2024-03-22T01:08:01;15.17;;;11.23;;
64619;SDS011;51029;51.058;13.826;2024-03-22T01:10:27;15.37;;;11.30;;
64619;SDS011;51029;51.058;13.826;2024-03-22T01:12:53;15.10;;;10.93;;
64619;SDS011;51029;51.058;13.826;2024-03-22T01:15:18;15.87;;;11.53;;
64619;SDS011;51029;51.058;13.826;2024-03-22T01:17:44;14.23;;;10.50;;
64619;SDS011;51029;51.058;13.826;2024-03-22T01:20:10;16.53;;;11.50;;
64619;SDS011;51029;51.058;13.826;2024-03-22T01:22:36;17.33;;;11.03;;
64619;SDS011;51029;51.058;13.826;2024-03-22T01:25:02;17.17;;;11.57;;
64619;SDS011;51029;51.058;13.826;2024-03-22T01:27:28;15.17;;;11.40;;
64619;SDS011;51029;51.058;13.826;2024-03-22T01:29:54;18.97;;;11.63;;
64619;SDS011;51029;51.058;13.826;2024-03-22T01:32:20;16.03;;;11.97;;
64619;SDS011;51029;51.058;13.826;2024-03-22T01:34:46;16.13;;;11.67;;
64619;SDS011;51029;51.058;13.826;2024-03-22T01:37:12;16.60;;;11.57;;
64619;SDS011;51029;51.058;13.826;2024-03-22T01:39:38;19.00;;;12.17;;
64619;SDS011;51029;51.058;13.826;2024-03-22T01:42:04;18.70;;;11.70;;
64619;SDS011;51029;51.058;13.826;2024-03-22T01:44:31;16.07;;;11.07;;
64619;SDS011;51029;51.058;13.826;2024-03-22T01:46:57;15.87;;;11.07;;
64619;SDS011;51029;51.058;13.826;2024-03-22T01:49:24;17.27;;;11.47;;
64619;SDS011;51029;51.058;13.826;2024-03-22T01:51:50;15.10;;;10.87;;
64619;SDS011;51029;51.058;13.826;2024-03-22T01:54:17;16.23;;;10.83;;
64619;SDS011;51029;51.058;13.826;2024-03-22T01:56:43;17.23;;;11.00;;
64619;SDS011;51029;51.058;13.826;2024-03-22T01:59:09;17.30;;;10.53;;
64619;SDS011;51029;51.058;13.826;2024-03-22T02:01:35;14.70;;;10.83;;
64619;SDS011;51029;51.058;13.826;2024-03-22T02:04:01;18.03;;;11.60;;
64619;SDS011;51029;51.058;13.826;2024-03-22T02:06:27;16.00;;;11.30;;
64619;SDS011;51029;51.058;13.826;2024-03-22T02:08:53;14.00;;;10.87;;
64619;SDS011;51029;51.058;13.826;2024-03-22T02:11:19;17.20;;;11.97;;
64619;SDS011;51029;51.058;13.826;2024-03-22T02:13:45;16.27;;;11.80;;
64619;SDS011;51029;51.058;13.826;2024-03-22T02:16:11;17.07;;;12.00;;
64619;SDS011;51029;51.058;13.826;2024-03-22T02:18:37;17.27;;;11.97;;
64619;SDS011;51029;51.058;13.826;2024-03-22T02:21:03;18.67;;;11.80;;
64619;SDS011;51029;51.058;13.826;2024-03-22T02:25:59;15.67;;;10.97;;
64619;SDS011;51029;51.058;13.826;2024-03-22T02:28:25;17.73;;;11.67;;
64619;SDS011;51029;51.058;13.826;2024-03-22T02:30:50;17.73;;;11.60;;
64619;SDS011;51029;51.058;13.826;2024-03-22T02:33:16;15.07;;;10.93;;
64619;SDS011;51029;51.058;13.826;2024-03-22T02:35:42;17.03;;;11.13;;
64619;SDS011;51029;51.058;13.826;2024-03-22T02:38:08;19.57;;;11.30;;
64619;SDS011;51029;51.058;13.826;2024-03-22T02:40:34;21.33;;;12.17;;
64619;SDS011;51029;51.058;13.826;2024-03-22T02:43:00;19.17;;;12.43;;
64619;SDS011;51029;51.058;13.826;2024-03-22T02:45:26;16.57;;;11.70;;
64619;SDS011;51029;51.058;13.826;2024-03-22T02:47:52;17.00;;;12.43;;
64619;SDS011;51029;51.058;13.826;2024-03-22T02:50:18;17.57;;;11.37;;
64619;SDS011;51029;51.058;13.826;2024-03-22T02:52:44;18.23;;;11.83;;
64619;SDS011;51029;51.058;13.826;2024-03-22T02:55:10;16.23;;;11.20;;
64619;SDS011;51029;51.058;13.826;2024-03-22T02:57:35;19.07;;;11.17;;
64619;SDS011;51029;51.058;13.826;2024-03-22T03:00:01;19.20;;;11.93;;
64619;SDS011;51029;51.058;13.826;2024-03-22T03:02:28;16.13;;;11.23;;
64619;SDS011;51029;51.058;13.826;2024-03-22T03:04:54;17.83;;;11.67;;
64619;SDS011;51029;51.058;13.826;2024-03-22T03:07:20;18.20;;;11.30;;
64619;SDS011;51029;51.058;13.826;2024-03-22T03:09:46;19.07;;;11.53;;
64619;SDS011;51029;51.058;13.826;2024-03-22T03:12:12;17.80;;;11.60;;
64619;SDS011;51029;51.058;13.826;2024-03-22T03:14:38;19.87;;;11.80;;
64619;SDS011;51029;51.058;13.826;2024-03-22T03:17:04;16.67;;;11.50;;
64619;SDS011;51029;51.058;13.826;2024-03-22T03:19:29;20.73;;;12.37;;
64619;SDS011;51029;51.058;13.826;2024-03-22T03:21:55;17.10;;;11.70;;
64619;SDS011;51029;51.058;13.826;2024-03-22T03:24:21;17.07;;;11.40;;
64619;SDS011;51029;51.058;13.826;2024-03-22T03:26:47;16.90;;;11.47;;
64619;SDS011;51029;51.058;13.826;2024-03-22T03:29:13;17.77;;;11.50;;
64619;SDS011;51029;51.058;13.826;2024-03-22T03:31:39;18.03;;;10.90;;
64619;SDS011;51029;51.058;13.826;2024-03-22T03:34:05;18.47;;;11.90;;
64619;SDS011;51029;51.058;13.826;2024-03-22T03:36:31;21.17;;;12.40;;
64619;SDS011;51029;51.058;13.826;2024-03-22T03:38:57;18.53;;;11.73;;
64619;SDS011;51029;51.058;13.826;2024-03-22T03:41:23;19.43;;;11.90;;
64619;SDS011;51029;51.058;13.826;2024-03-22T03:43:49;19.73;;;12.10;;
64619;SDS011;51029;51.058;13.826;2024-03-22T03:46:14;18.07;;;11.77;;
64619;SDS011;51029;51.058;13.826;2024-03-22T03:48:40;18.47;;;12.10;;
64619;SDS011;51029;51.058;13.826;2024-03-22T03:51:06;19.20;;;12.63;;
64619;SDS011;51029;51.058;13.826;2024-03-22T03:53:32;20.33;;;12.13;;
64619;SDS011;51029;51.058;13.826;2024-03-22T03:55:58;19.37;;;12.43;;
64619;SDS011;51029;51.058;13.826;2024-03-22T03:58:24;21.97;;;12.97;;
64619;SDS011;51029;51.058;13.826;2024-03-22T04:00:50;21.83;;;13.20;;
64619;SDS011;51029;51.058;13.826;2024-03-22T04:03:16;18.40;;;12.00;;
64619;SDS011;51029;51.058;13.826;2024-03-22T04:05:42;19.97;;;12.83;;
64619;SDS011;51029;51.058;13.826;2024-03-22T04:08:08;20.33;;;13.20;;
64619;SDS011;51029;51.058;13.826;2024-03-22T04:10:34;19.60;;;12.77;;
64619;SDS011;51029;51.058;13.826;2024-03-22T04:12:59;19.40;;;12.63;;
64619;SDS011;51029;51.058;13.826;2024-03-22T04:15:25;20.17;;;12.77;;
64619;SDS011;51029;51.058;13.826;2024-03-22T04:17:51;18.20;;;12.87;;
64619;SDS011;51029;51.058;13.826;2024-03-22T04:20:18;20.57;;;12.77;;
64619;SDS011;51029;51.058;13.826;2024-03-22T04:22:44;20.53;;;12.80;;
64619;SDS011;51029;51.058;13.826;2024-03-22T04:25:09;21.57;;;12.97;;
64619;SDS011;51029;51.058;13.826;2024-03-22T04:27:36;21.00;;;12.70;;
64619;SDS011;51029;51.058;13.826;2024-03-22T04:30:02;19.40;;;12.40;;
64619;SDS011;51029;51.058;13.826;2024-03-22T04:32:28;21.33;;;13.50;;
64619;SDS011;51029;51.058;13.826;2024-03-22T04:34:54;19.97;;;13.03;;
64619;SDS011;51029;51.058;13.826;2024-03-22T04:37:20;20.90;;;12.73;;
64619;SDS011;51029;51.058;13.826;2024-03-22T04:39:46;22.27;;;13.77;;
64619;SDS011;51029;51.058;13.826;2024-03-22T04:42:12;19.03;;;12.50;;
64619;SDS011;51029;51.058;13.826;2024-03-22T04:44:38;23.13;;;13.93;;
64619;SDS011;51029;51.058;13.826;2024-03-22T04:47:04;20.70;;;13.53;;
64619;SDS011;51029;51.058;13.826;2024-03-22T04:49:30;24.53;;;13.63;;
64619;SDS011;51029;51.058;13.826;2024-03-22T04:51:56;20.07;;;13.47;;
64619;SDS011;51029;51.058;13.826;2024-03-22T04:54:22;23.80;;;13.93;;
64619;SDS011;51029;51.058;13.826;2024-03-22T04:56:48;20.17;;;13.27;;
64619;SDS011;51029;51.058;13.826;2024-03-22T04:59:13;21.80;;;14.03;;
64619;SDS011;51029;51.058;13.826;2024-03-22T05:01:39;24.07;;;14.37;;
64619;SDS011;51029;51.058;13.826;2024-03-22T05:04:05;22.33;;;14.63;;
64619;SDS011;51029;51.058;13.826;2024-03-22T05:06:31;21.07;;;14.17;;
64619;SDS011;51029;51.058;13.826;2024-03-22T05:08:57;24.20;;;14.53;;
64619;SDS011;51029;51.058;13.826;2024-03-22T05:11:23;25.33;;;14.43;;
64619;SDS011;51029;51.058;13.826;2024-03-22T05:13:49;23.93;;;14.70;;
64619;SDS011;51029;51.058;13.826;2024-03-22T05:16:15;24.20;;;14.37;;
64619;SDS011;51029;51.058;13.826;2024-03-22T05:18:41;23.97;;;14.30;;
64619;SDS011;51029;51.058;13.826;2024-03-22T05:21:08;25.83;;;15.50;;
64619;SDS011;51029;51.058;13.826;2024-03-22T05:23:34;26.20;;;15.93;;
64619;SDS011;51029;51.058;13.826;2024-03-22T05:26:00;26.83;;;16.20;;
64619;SDS011;51029;51.058;13.826;2024-03-22T05:28:26;25.50;;;15.73;;
64619;SDS011;51029;51.058;13.826;2024-03-22T05:30:52;26.27;;;15.10;;
64619;SDS011;51029;51.058;13.826;2024-03-22T05:33:18;24.87;;;15.50;;
64619;SDS011;51029;51.058;13.826;2024-03-22T05:35:44;23.60;;;14.77;;
64619;SDS011;51029;51.058;13.826;2024-03-22T05:38:10;26.33;;;15.50;;
64619;SDS011;51029;51.058;13.826;2024-03-22T05:40:36;28.70;;;16.67;;
64619;SDS011;51029;51.058;13.826;2024-03-22T05:43:03;27.67;;;16.20;;
64619;SDS011;51029;51.058;13.826;2024-03-22T05:45:29;27.43;;;16.30;;
64619;SDS011;51029;51.058;13.826;2024-03-22T05:47:55;25.17;;;16.07;;
64619;SDS011;51029;51.058;13.826;2024-03-22T05:50:21;29.83;;;16.80;;
64619;SDS011;51029;51.058;13.826;2024-03-22T05:52:47;25.97;;;16.30;;
64619;SDS011;51029;51.058;13.826;2024-03-22T05:55:13;29.20;;;16.17;;
64619;SDS011;51029;51.058;13.826;2024-03-22T05:57:39;26.57;;;16.43;;
64619;SDS011;51029;51.058;13.826;2024-03-22T06:00:05;23.67;;;15.60;;
64619;SDS011;51029;51.058;13.826;2024-03-22T06:02:34;23.97;;;15.20;;
64619;SDS011;51029;51.058;13.826;2024-03-22T06:05:00;19.63;;;13.57;;
64619;SDS011;51029;51.058;13.826;2024-03-22T06:07:26;20.47;;;14.40;;
64619;SDS011;51029;51.058;13.826;2024-03-22T06:09:52;20.87;;;14.37;;
64619;SDS011;51029;51.058;13.826;2024-03-22T06:12:18;23.67;;;14.43;;
64619;SDS011;51029;51.058;13.826;2024-03-22T06:14:44;19.57;;;11.87;;
64619;SDS011;51029;51.058;13.826;2024-03-22T06:17:13;20.73;;;12.83;;
64619;SDS011;51029;51.058;13.826;2024-03-22T06:19:40;17.13;;;12.57;;
64619;SDS011;51029;51.058;13.826;2024-03-22T06:22:06;13.67;;;10.53;;
64619;SDS011;51029;51.058;13.826;2024-03-22T06:24:32;15.57;;;10.60;;
64619;SDS011;51029;51.058;13.826;2024-03-22T06:26:58;12.83;;;9.57;;
64619;SDS011;51029;51.058;13.826;2024-03-22T06:29:24;13.10;;;9.70;;
64619;SDS011;51029;51.058;13.826;2024-03-22T06:31:50;12.83;;;9.63;;
64619;SDS011;51029;51.058;13.826;2024-03-22T06:34:17;14.07;;;9.57;;
64619;SDS011;51029;51.058;13.826;2024-03-22T06:36:43;14.07;;;10.40;;
64619;SDS011;51029;51.058;13.826;2024-03-22T06:39:09;12.70;;;9.27;;
64619;SDS011;51029;51.058;13.826;2024-03-22T06:41:35;12.20;;;8.20;;
64619;SDS011;51029;51.058;13.826;2024-03-22T06:44:01;12.80;;;8.67;;
64619;SDS011;51029;51.058;13.826;2024-03-22T06:46:27;12.83;;;8.70;;
64619;SDS011;51029;51.058;13.826;2024-03-22T06:48:53;12.53;;;8.60;;
64619;SDS011;51029;51.058;13.826;2024-03-22T06:51:19;11.53;;;8.70;;
64619;SDS011;51029;51.058;13.826;2024-03-22T06:53:45;11.30;;;8.53;;
64619;SDS011;51029;51.058;13.826;2024-03-22T06:56:12;11.30;;;7.90;;
64619;SDS011;51029;51.058;13.826;2024-03-22T06:58:38;12.07;;;8.30;;
64619;SDS011;51029;51.058;13.826;2024-03-22T07:01:04;9.83;;;7.83;;
64619;SDS011;51029;51.058;13.826;2024-03-22T07:03:30;11.87;;;8.50;;
64619;SDS011;51029;51.058;13.826;2024-03-22T07:05:56;9.93;;;8.17;;
64619;SDS011;51029;51.058;13.826;2024-03-22T07:08:23;11.33;;;8.27;;
64619;SDS011;51029;51.058;13.826;2024-03-22T07:10:49;10.97;;;8.50;;
64619;SDS011;51029;51.058;13.826;2024-03-22T07:13:14;11.03;;;8.13;;
64619;SDS011;51029;51.058;13.826;2024-03-22T07:15:40;10.60;;;7.90;;
64619;SDS011;51029;51.058;13.826;2024-03-22T07:18:07;9.97;;;7.20;;
64619;SDS011;51029;51.058;13.826;2024-03-22T07:20:33;11.10;;;7.70;;
64619;SDS011;51029;51.058;13.826;2024-03-22T07:22:59;9.97;;;8.10;;
64619;SDS011;51029;51.058;13.826;2024-03-22T07:25:25;11.07;;;8.53;;
64619;SDS011;51029;51.058;13.826;2024-03-22T07:27:51;10.27;;;8.60;;
64619;SDS011;51029;51.058;13.826;2024-03-22T07:30:17;13.17;;;8.17;;
64619;SDS011;51029;51.058;13.826;2024-03-22T07:32:43;10.20;;;8.07;;
64619;SDS011;51029;51.058;13.826;2024-03-22T07:35:09;11.30;;;8.00;;
64619;SDS011;51029;51.058;13.826;2024-03-22T07:37:35;10.33;;;8.00;;
64619;SDS011;51029;51.058;13.826;2024-03-22T07:40:01;12.37;;;8.07;;
64619;SDS011;51029;51.058;13.826;2024-03-22T07:42:27;10.10;;;7.70;;
64619;SDS011;51029;51.058;13.826;2024-03-22T07:44:53;10.73;;;7.73;;
64619;SDS011;51029;51.058;13.826;2024-03-22T07:47:19;9.17;;;7.27;;
64619;SDS011;51029;51.058;13.826;2024-03-22T07:49:45;9.80;;;7.67;;
64619;SDS011;51029;51.058;13.826;2024-03-22T07:52:11;10.00;;;7.73;;
64619;SDS011;51029;51.058;13.826;2024-03-22T07:54:37;9.90;;;7.23;;
64619;SDS011;51029;51.058;13.826;2024-03-22T07:57:03;10.93;;;7.80;;
64619;SDS011;51029;51.058;13.826;2024-03-22T07:59:29;10.87;;;7.67;;
64619;SDS011;51029;51.058;13.826;2024-03-22T08:01:55;12.57;;;7.70;;
64619;SDS011;51029;51.058;13.826;2024-03-22T08:04:22;8.93;;;7.10;;
64619;SDS011;51029;51.058;13.826;2024-03-22T08:06:50;13.43;;;8.43;;
64619;SDS011;51029;51.058;13.826;2024-03-22T08:09:16;10.97;;;7.90;;
64619;SDS011;51029;51.058;13.826;2024-03-22T08:11:43;12.63;;;8.47;;
64619;SDS011;51029;51.058;13.826;2024-03-22T08:14:09;12.13;;;8.50;;
64619;SDS011;51029;51.058;13.826;2024-03-22T08:16:35;12.63;;;8.20;;
64619;SDS011;51029;51.058;13.826;2024-03-22T08:19:01;9.93;;;8.00;;
64619;SDS011;51029;51.058;13.826;2024-03-22T08:21:27;11.53;;;7.50;;
64619;SDS011;51029;51.058;13.826;2024-03-22T08:23:53;12.27;;;8.00;;
64619;SDS011;51029;51.058;13.826;2024-03-22T08:26:19;10.23;;;7.70;;
64619;SDS011;51029;51.058;13.826;2024-03-22T08:28:46;10.80;;;8.33;;
64619;SDS011;51029;51.058;13.826;2024-03-22T08:31:12;11.20;;;8.47;;
64619;SDS011;51029;51.058;13.826;2024-03-22T08:33:38;12.93;;;8.27;;
64619;SDS011;51029;51.058;13.826;2024-03-22T08:36:04;13.23;;;9.43;;
64619;SDS011;51029;51.058;13.826;2024-03-22T08:38:30;14.40;;;9.17;;
64619;SDS011;51029;51.058;13.826;2024-03-22T08:40:56;14.93;;;9.70;;
64619;SDS011;51029;51.058;13.826;2024-03-22T08:43:22;14.10;;;10.20;;
64619;SDS011;51029;51.058;13.826;2024-03-22T08:45:50;14.73;;;9.67;;
64619;SDS011;51029;51.058;13.826;2024-03-22T08:48:16;14.20;;;10.03;;
64619;SDS011;51029;51.058;13.826;2024-03-22T08:50:43;14.93;;;10.03;;
64619;SDS011;51029;51.058;13.826;2024-03-22T08:53:09;14.77;;;9.90;;
64619;SDS011;51029;51.058;13.826;2024-03-22T08:55:34;15.23;;;10.00;;
64619;SDS011;51029;51.058;13.826;2024-03-22T08:58:00;13.10;;;8.83;;
64619;SDS011;51029;51.058;13.826;2024-03-22T09:00:26;14.07;;;8.97;;
64619;SDS011;51029;51.058;13.826;2024-03-22T09:02:52;14.37;;;9.20;;
64619;SDS011;51029;51.058;13.826;2024-03-22T09:05:18;11.90;;;8.33;;
64619;SDS011;51029;51.058;13.826;2024-03-22T09:07:44;11.27;;;8.33;;
64619;SDS011;51029;51.058;13.826;2024-03-22T09:10:10;13.23;;;8.90;;
64619;SDS011;51029;51.058;13.826;2024-03-22T09:12:36;11.47;;;8.53;;
64619;SDS011;51029;51.058;13.826;2024-03-22T09:15:02;13.43;;;8.60;;
64619;SDS011;51029;51.058;13.826;2024-03-22T09:17:28;13.50;;;8.70;;
64619;SDS011;51029;51.058;13.826;2024-03-22T09:19:54;13.13;;;8.50;;
64619;SDS011;51029;51.058;13.826;2024-03-22T09:22:20;10.23;;;7.40;;
64619;SDS011;51029;51.058;13.826;2024-03-22T09:24:47;10.93;;;7.43;;
64619;SDS011;51029;51.058;13.826;2024-03-22T09:27:13;11.73;;;7.60;;
64619;SDS011;51029;51.058;13.826;2024-03-22T09:29:38;9.17;;;6.97;;
64619;SDS011;51029;51.058;13.826;2024-03-22T09:32:04;9.47;;;6.40;;
64619;SDS011;51029;51.058;13.826;2024-03-22T09:34:30;9.93;;;7.20;;
64619;SDS011;51029;51.058;13.826;2024-03-22T09:36:56;8.73;;;6.13;;
64619;SDS011;51029;51.058;13.826;2024-03-22T09:39:22;8.37;;;6.20;;
64619;SDS011;51029;51.058;13.826;2024-03-22T09:41:50;9.87;;;6.67;;
64619;SDS011;51029;51.058;13.826;2024-03-22T09:44:18;9.23;;;6.47;;
64619;SDS011;51029;51.058;13.826;2024-03-22T09:46:44;8.70;;;5.97;;
64619;SDS011;51029;51.058;13.826;2024-03-22T09:49:12;9.43;;;6.07;;
64619;SDS011;51029;51.058;13.826;2024-03-22T09:51:41;10.43;;;6.97;;
64619;SDS011;51029;51.058;13.826;2024-03-22T09:54:08;8.83;;;6.07;;
64619;SDS011;51029;51.058;13.826;2024-03-22T09:56:35;7.73;;;5.70;;
64619;SDS011;51029;51.058;13.826;2024-03-22T09:59:01;9.87;;;5.90;;
64619;SDS011;51029;51.058;13.826;2024-03-22T10:01:28;8.33;;;5.77;;
64619;SDS011;51029;51.058;13.826;2024-03-22T10:03:54;7.13;;;5.47;;
64619;SDS011;51029;51.058;13.826;2024-03-22T10:06:20;6.23;;;4.73;;
64619;SDS011;51029;51.058;13.826;2024-03-22T10:08:46;10.00;;;5.70;;
64619;SDS011;51029;51.058;13.826;2024-03-22T10:11:12;8.83;;;5.00;;
64619;SDS011;51029;51.058;13.826;2024-03-22T10:13:38;6.90;;;5.07;;
64619;SDS011;51029;51.058;13.826;2024-03-22T10:16:04;8.70;;;5.20;;
64619;SDS011;51029;51.058;13.826;2024-03-22T10:18:32;5.90;;;4.77;;
64619;SDS011;51029;51.058;13.826;2024-03-22T10:20:59;6.43;;;4.80;;
64619;SDS011;51029;51.058;13.826;2024-03-22T10:23:25;6.80;;;5.10;;
64619;SDS011;51029;51.058;13.826;2024-03-22T10:25:51;6.03;;;4.63;;
64619;SDS011;51029;51.058;13.826;2024-03-22T10:28:17;8.33;;;4.83;;
64619;SDS011;51029;51.058;13.826;2024-03-22T10:30:43;5.90;;;4.20;;
64619;SDS011;51029;51.058;13.826;2024-03-22T10:33:10;6.27;;;4.77;;
64619;SDS011;51029;51.058;13.826;2024-03-22T10:35:36;5.60;;;4.53;;
64619;SDS011;51029;51.058;13.826;2024-03-22T10:38:03;6.13;;;4.10;;
64619;SDS011;51029;51.058;13.826;2024-03-22T10:40:29;8.33;;;4.70;;
64619;SDS011;51029;51.058;13.826;2024-03-22T10:42:55;6.07;;;4.50;;
64619;SDS011;51029;51.058;13.826;2024-03-22T10:45:22;6.23;;;4.37;;
64619;SDS011;51029;51.058;13.826;2024-03-22T10:47:50;6.40;;;4.40;;
64619;SDS011;51029;51.058;13.826;2024-03-22T10:50:18;5.83;;;4.50;;
64619;SDS011;51029;51.058;13.826;2024-03-22T10:52:48;6.37;;;4.63;;
64619;SDS011;51029;51.058;13.826;2024-03-22T10:55:19;4.80;;;3.90;;
64619;SDS011;51029;51.058;13.826;2024-03-22T10:57:48;5.93;;;4.50;;
64619;SDS011;51029;51.058;13.826;2024-03-22T11:00:14;7.07;;;4.17;;
64619;SDS011;51029;51.058;13.826;2024-03-22T11:02:43;6.60;;;4.50;;
64619;SDS011;51029;51.058;13.826;2024-03-22T11:05:16;4.97;;;4.00;;
64619;SDS011;51029;51.058;13.826;2024-03-22T11:07:43;5.63;;;4.20;;
64619;SDS011;51029;51.058;13.826;2024-03-22T11:10:09;5.13;;;4.13;;
64619;SDS011;51029;51.058;13.826;2024-03-22T11:12:37;5.80;;;4.00;;
64619;SDS011;51029;51.058;13.826;2024-03-22T11:15:03;6.03;;;3.83;;
64619;SDS011;51029;51.058;13.826;2024-03-22T11:17:29;7.20;;;4.77;;
64619;SDS011;51029;51.058;13.826;2024-03-22T11:19:55;5.20;;;4.23;;
64619;SDS011;51029;51.058;13.826;2024-03-22T11:22:21;6.53;;;3.63;;
64619;SDS011;51029;51.058;13.826;2024-03-22T11:24:47;7.03;;;4.00;;
64619;SDS011;51029;51.058;13.826;2024-03-22T11:27:12;5.23;;;3.93;;
64619;SDS011;51029;51.058;13.826;2024-03-22T11:29:39;6.23;;;3.93;;
64619;SDS011;51029;51.058;13.826;2024-03-22T11:32:06;6.87;;;3.93;;
64619;SDS011;51029;51.058;13.826;2024-03-22T11:34:36;5.40;;;4.10;;
64619;SDS011;51029;51.058;13.826;2024-03-22T11:37:03;5.97;;;4.10;;
64619;SDS011;51029;51.058;13.826;2024-03-22T11:39:29;6.00;;;3.83;;
64619;SDS011;51029;51.058;13.826;2024-03-22T11:41:55;5.57;;;4.30;;
64619;SDS011;51029;51.058;13.826;2024-03-22T11:44:22;8.33;;;4.53;;
64619;SDS011;51029;51.058;13.826;2024-03-22T11:46:50;5.93;;;4.40;;
64619;SDS011;51029;51.058;13.826;2024-03-22T11:49:17;6.30;;;4.83;;
64619;SDS011;51029;51.058;13.826;2024-03-22T11:51:44;8.03;;;3.90;;
64619;SDS011;51029;51.058;13.826;2024-03-22T11:54:10;4.77;;;3.67;;
64619;SDS011;51029;51.058;13.826;2024-03-22T11:56:36;6.97;;;4.80;;
64619;SDS011;51029;51.058;13.826;2024-03-22T11:59:02;5.73;;;4.43;;
64619;SDS011;51029;51.058;13.826;2024-03-22T12:01:28;6.17;;;4.47;;
64619;SDS011;51029;51.058;13.826;2024-03-22T12:03:55;5.40;;;4.03;;
64619;SDS011;51029;51.058;13.826;2024-03-22T12:06:21;4.63;;;4.03;;
64619;SDS011;51029;51.058;13.826;2024-03-22T12:08:47;5.20;;;3.87;;
64619;SDS011;51029;51.058;13.826;2024-03-22T12:11:13;4.97;;;3.83;;
64619;SDS011;51029;51.058;13.826;2024-03-22T12:13:39;5.53;;;3.97;;
64619;SDS011;51029;51.058;13.826;2024-03-22T12:16:05;5.17;;;3.70;;
64619;SDS011;51029;51.058;13.826;2024-03-22T12:18:32;8.17;;;4.30;;
64619;SDS011;51029;51.058;13.826;2024-03-22T12:20:58;5.77;;;3.90;;
64619;SDS011;51029;51.058;13.826;2024-03-22T12:23:24;6.97;;;3.70;;
64619;SDS011;51029;51.058;13.826;2024-03-22T12:25:50;5.77;;;4.10;;
64619;SDS011;51029;51.058;13.826;2024-03-22T12:28:16;5.60;;;3.83;;
64619;SDS011;51029;51.058;13.826;2024-03-22T12:30:42;6.73;;;4.03;;
64619;SDS011;51029;51.058;13.826;2024-03-22T12:33:08;5.73;;;4.37;;
64619;SDS011;51029;51.058;13.826;2024-03-22T12:35:36;8.53;;;4.80;;
64619;SDS011;51029;51.058;13.826;2024-03-22T12:38:02;7.33;;;4.80;;
64619;SDS011;51029;51.058;13.826;2024-03-22T12:40:28;6.00;;;4.50;;
64619;SDS011;51029;51.058;13.826;2024-03-22T12:42:54;5.73;;;4.57;;
64619;SDS011;51029;51.058;13.826;2024-03-22T12:45:21;6.07;;;5.00;;
64619;SDS011;51029;51.058;13.826;2024-03-22T12:47:47;6.13;;;5.03;;
64619;SDS011;51029;51.058;13.826;2024-03-22T12:50:13;7.87;;;5.50;;
64619;SDS011;51029;51.058;13.826;2024-03-22T12:52:39;8.93;;;5.03;;
64619;SDS011;51029;51.058;13.826;2024-03-22T12:55:05;7.67;;;4.93;;
64619;SDS011;51029;51.058;13.826;2024-03-22T12:57:31;22.83;;;11.70;;
64619;SDS011;51029;51.058;13.826;2024-03-22T12:59:57;8.43;;;5.03;;
64619;SDS011;51029;51.058;13.826;2024-03-22T13:02:23;7.60;;;5.33;;
64619;SDS011;51029;51.058;13.826;2024-03-22T13:04:52;6.90;;;4.93;;
64619;SDS011;51029;51.058;13.826;2024-03-22T13:07:19;7.60;;;5.40;;
64619;SDS011;51029;51.058;13.826;2024-03-22T13:09:45;8.47;;;5.87;;
64619;SDS011;51029;51.058;13.826;2024-03-22T13:12:11;6.67;;;5.00;;
64619;SDS011;51029;51.058;13.826;2024-03-22T13:14:36;6.83;;;4.83;;
64619;SDS011;51029;51.058;13.826;2024-03-22T13:17:02;7.20;;;5.13;;
64619;SDS011;51029;51.058;13.826;2024-03-22T13:19:28;6.93;;;4.90;;
64619;SDS011;51029;51.058;13.826;2024-03-22T13:21:54;5.37;;;4.33;;
64619;SDS011;51029;51.058;13.826;2024-03-22T13:24:20;6.80;;;5.17;;
64619;SDS011;51029;51.058;13.826;2024-03-22T13:26:46;7.53;;;5.73;;
64619;SDS011;51029;51.058;13.826;2024-03-22T13:29:12;6.60;;;4.60;;
64619;SDS011;51029;51.058;13.826;2024-03-22T13:31:39;6.90;;;4.93;;
64619;SDS011;51029;51.058;13.826;2024-03-22T13:34:04;6.17;;;5.00;;
64619;SDS011;51029;51.058;13.826;2024-03-22T13:36:30;7.70;;;5.70;;
64619;SDS011;51029;51.058;13.826;2024-03-22T13:39:01;8.57;;;5.83;;
64619;SDS011;51029;51.058;13.826;2024-03-22T13:41:27;7.47;;;5.13;;
64619;SDS011;51029;51.058;13.826;2024-03-22T13:43:53;7.80;;;5.30;;
64619;SDS011;51029;51.058;13.826;2024-03-22T13:46:19;6.77;;;5.07;;
64619;SDS011;51029;51.058;13.826;2024-03-22T13:48:45;7.03;;;5.33;;
64619;SDS011;51029;51.058;13.826;2024-03-22T13:51:11;9.67;;;5.23;;
64619;SDS011;51029;51.058;13.826;2024-03-22T13:53:37;6.90;;;5.20;;
64619;SDS011;51029;51.058;13.826;2024-03-22T13:56:03;7.70;;;5.20;;
64619;SDS011;51029;51.058;13.826;2024-03-22T13:58:29;8.00;;;5.57;;
64619;SDS011;51029;51.058;13.826;2024-03-22T14:00:55;7.53;;;5.27;;
64619;SDS011;51029;51.058;13.826;2024-03-22T14:03:21;6.97;;;4.90;;
64619;SDS011;51029;51.058;13.826;2024-03-22T14:05:46;8.40;;;5.23;;
64619;SDS011;51029;51.058;13.826;2024-03-22T14:08:12;7.13;;;5.27;;
64619;SDS011;51029;51.058;13.826;2024-03-22T14:10:38;9.13;;;5.10;;
64619;SDS011;51029;51.058;13.826;2024-03-22T14:13:04;7.33;;;5.43;;
64619;SDS011;51029;51.058;13.826;2024-03-22T14:15:32;7.67;;;5.50;;
64619;SDS011;51029;51.058;13.826;2024-03-22T14:18:00;8.10;;;5.67;;